createdAt,value
2024-01-22T00:02:40.491Z,17.53
2024-01-22T00:05:43.154Z,17.33
2024-01-22T00:08:47.973Z,18.13
2024-01-22T00:11:51.886Z,17.90
2024-01-22T00:14:55.284Z,17.10
2024-01-22T00:17:58.283Z,16.57
2024-01-22T00:21:01.041Z,17.27
2024-01-22T00:24:04.551Z,17.02
2024-01-22T00:27:07.518Z,17.10
2024-01-22T00:30:12.411Z,16.75
2024-01-22T00:33:15.507Z,17.03
2024-01-22T00:36:18.348Z,16.50
2024-01-22T00:39:22.980Z,17.23
2024-01-22T00:42:25.885Z,16.73
2024-01-22T00:45:30.328Z,16.95
2024-01-22T00:48:33.403Z,16.73
2024-01-22T00:51:38.211Z,16.48
2024-01-22T00:54:41.808Z,16.75
2024-01-22T00:57:44.436Z,16.23
2024-01-22T01:00:47.293Z,16.35
2024-01-22T01:03:50.308Z,16.13
2024-01-22T01:06:53.692Z,16.85
2024-01-22T01:09:56.607Z,16.27
2024-01-22T01:12:59.522Z,16.48
2024-01-22T01:16:02.554Z,16.05
2024-01-22T01:19:05.583Z,16.67
2024-01-22T01:22:09.542Z,16.42
2024-01-22T01:25:12.451Z,16.75
2024-01-22T01:28:16.070Z,15.75
2024-01-22T01:31:19.350Z,16.33
2024-01-22T01:34:22.604Z,16.00
2024-01-22T01:37:25.560Z,16.20
2024-01-22T01:40:28.750Z,15.25
2024-01-22T01:43:31.859Z,16.35
2024-01-22T01:46:34.758Z,15.43
2024-01-22T01:49:38.122Z,16.00
2024-01-22T01:52:41.246Z,15.60
2024-01-22T01:55:46.328Z,15.63
2024-01-22T01:58:50.307Z,15.77
2024-01-22T02:01:54.268Z,15.05
2024-01-22T02:04:57.351Z,15.03
2024-01-22T02:08:00.289Z,15.10
2024-01-22T02:11:04.675Z,15.43
2024-01-22T02:14:07.650Z,15.68
2024-01-22T02:17:10.503Z,15.63
2024-01-22T02:20:13.445Z,15.20
2024-01-22T02:23:17.253Z,15.05
2024-01-22T02:26:21.007Z,15.82
2024-01-22T02:29:24.969Z,15.10
2024-01-22T02:32:27.960Z,15.48
2024-01-22T02:35:31.332Z,14.50
2024-01-22T02:38:35.058Z,14.45
2024-01-22T02:41:37.985Z,14.73
2024-01-22T02:44:42.808Z,15.00
2024-01-22T02:47:46.018Z,14.40
2024-01-22T02:50:48.868Z,14.63
2024-01-22T02:53:52.567Z,14.85
2024-01-22T02:56:55.162Z,14.60
2024-01-22T02:59:58.349Z,14.25
2024-01-22T03:03:01.349Z,14.90
2024-01-22T03:06:04.566Z,14.20
2024-01-22T03:09:07.751Z,13.90
2024-01-22T03:12:10.694Z,14.00
2024-01-22T03:15:14.186Z,13.73
2024-01-22T03:18:17.443Z,14.55
2024-01-22T03:21:21.013Z,14.03
2024-01-22T03:24:23.933Z,13.48
2024-01-22T03:27:26.961Z,13.73
2024-01-22T03:30:30.388Z,13.32
2024-01-22T03:33:33.433Z,13.40
2024-01-22T03:36:38.734Z,13.27
2024-01-22T03:39:41.582Z,13.20
2024-01-22T03:42:44.532Z,12.88
2024-01-22T03:45:47.843Z,12.43
2024-01-22T03:48:51.575Z,13.15
2024-01-22T03:51:55.692Z,12.33
2024-01-22T03:54:58.662Z,14.52
2024-01-22T03:58:01.674Z,12.90
2024-01-22T04:01:04.487Z,12.10
2024-01-22T04:04:07.498Z,13.05
2024-01-22T04:07:10.465Z,13.53
2024-01-22T04:10:17.779Z,12.20
2024-01-22T04:13:29.651Z,12.50
2024-01-22T04:16:37.941Z,13.38
2024-01-22T04:19:42.989Z,12.02
2024-01-22T04:22:45.559Z,12.60
2024-01-22T04:25:48.902Z,12.02
2024-01-22T04:28:51.948Z,12.75
2024-01-22T04:31:55.839Z,13.02
2024-01-22T04:34:59.729Z,11.68
2024-01-22T04:38:02.434Z,12.50
2024-01-22T04:41:06.005Z,12.45
2024-01-22T04:44:08.901Z,12.75
2024-01-22T04:47:11.484Z,12.43
2024-01-22T04:50:15.265Z,12.77
2024-01-22T04:53:18.196Z,11.90
2024-01-22T04:56:21.151Z,12.73
2024-01-22T04:59:24.123Z,12.23
2024-01-22T05:02:30.134Z,12.93
2024-01-22T05:05:34.853Z,12.43
2024-01-22T05:08:39.610Z,11.60
2024-01-22T05:11:42.806Z,11.52
2024-01-22T05:14:47.033Z,11.85
2024-01-22T05:17:50.249Z,12.27
2024-01-22T05:20:53.084Z,13.02
2024-01-22T05:23:56.102Z,11.60
2024-01-22T05:26:58.818Z,12.13
2024-01-22T05:30:03.126Z,12.18
2024-01-22T05:33:06.423Z,11.90
2024-01-22T05:36:10.372Z,12.55
2024-01-22T05:39:14.298Z,12.30
2024-01-22T05:42:17.220Z,11.90
2024-01-22T05:45:20.416Z,11.93
2024-01-22T05:48:23.471Z,12.50
2024-01-22T05:51:26.910Z,12.30
2024-01-22T05:54:31.217Z,12.50
2024-01-22T05:57:34.098Z,12.63
2024-01-22T06:00:40.728Z,12.45
2024-01-22T06:03:43.540Z,12.75
2024-01-22T06:06:46.253Z,13.55
2024-01-22T06:09:55.485Z,12.90
2024-01-22T06:13:06.275Z,12.45
2024-01-22T06:16:10.628Z,12.32
2024-01-22T06:19:14.345Z,12.07
2024-01-22T06:22:19.216Z,12.73
2024-01-22T06:25:22.422Z,11.53
2024-01-22T06:28:26.114Z,11.93
2024-01-22T06:31:30.093Z,12.07
2024-01-22T06:34:33.322Z,11.98
2024-01-22T06:37:53.822Z,12.52
2024-01-22T06:40:58.306Z,12.17
2024-01-22T06:44:03.866Z,11.93
2024-01-22T06:47:07.097Z,11.45
2024-01-22T06:50:11.074Z,12.10
2024-01-22T06:53:17.036Z,11.50
2024-01-22T06:56:20.723Z,11.07
2024-01-22T06:59:25.654Z,10.63
2024-01-22T07:02:30.452Z,10.98
2024-01-22T07:05:34.585Z,11.40
2024-01-22T07:08:39.976Z,11.25
2024-01-22T07:11:48.022Z,10.60
2024-01-22T07:14:51.136Z,10.90
2024-01-22T07:17:54.503Z,11.30
2024-01-22T07:21:00.275Z,11.07
2024-01-22T07:24:03.254Z,10.55
2024-01-22T07:27:06.316Z,10.67
2024-01-22T07:30:15.640Z,11.02
2024-01-22T07:33:18.723Z,10.65
2024-01-22T07:36:29.243Z,10.75
2024-01-22T07:39:32.274Z,10.57
2024-01-22T07:42:35.375Z,10.77
2024-01-22T07:45:39.088Z,10.65
2024-01-22T07:48:41.892Z,10.35
2024-01-22T07:51:47.313Z,10.43
2024-01-22T07:54:56.544Z,11.65
2024-01-22T07:58:02.754Z,10.77
2024-01-22T08:01:06.423Z,11.15
2024-01-22T08:04:12.364Z,12.07
2024-01-22T08:07:17.556Z,11.55
2024-01-22T08:10:23.066Z,12.25
2024-01-22T08:13:28.099Z,11.10
2024-01-22T08:16:35.788Z,10.68
2024-01-22T08:19:39.347Z,11.20
2024-01-22T08:22:48.057Z,11.02
2024-01-22T08:25:50.856Z,11.63
2024-01-22T08:28:55.110Z,10.97
2024-01-22T08:31:59.921Z,10.68
2024-01-22T08:35:05.543Z,10.95
2024-01-22T08:38:11.319Z,11.02
2024-01-22T08:41:15.416Z,11.38
2024-01-22T08:44:21.942Z,11.07
2024-01-22T08:47:24.706Z,11.15
2024-01-22T08:50:27.855Z,11.63
2024-01-22T08:53:32.706Z,11.05
2024-01-22T08:56:35.380Z,11.10
2024-01-22T08:59:39.371Z,11.20
2024-01-22T09:02:45.643Z,11.48
2024-01-22T09:05:49.142Z,10.93
2024-01-22T09:08:52.674Z,11.07
2024-01-22T09:12:05.004Z,10.90
2024-01-22T09:15:13.718Z,10.97
2024-01-22T09:18:17.774Z,11.00
2024-01-22T09:21:20.890Z,10.57
2024-01-22T09:24:25.288Z,11.45
2024-01-22T09:27:28.189Z,11.18
2024-01-22T09:30:31.175Z,10.13
2024-01-22T09:33:34.013Z,10.20
2024-01-22T09:36:37.991Z,10.07
2024-01-22T09:39:42.094Z,10.52
2024-01-22T09:42:45.738Z,10.07
2024-01-22T09:45:51.449Z,11.10
2024-01-22T09:49:00.424Z,10.38
2024-01-22T09:52:03.630Z,10.75
2024-01-22T09:55:08.095Z,11.70
2024-01-22T09:58:20.882Z,12.75
2024-01-22T10:01:26.315Z,11.33
2024-01-22T10:04:32.513Z,11.52
2024-01-22T10:07:35.607Z,11.02
2024-01-22T10:10:39.420Z,10.55
2024-01-22T10:13:51.999Z,10.75
2024-01-22T10:16:58.466Z,11.47
2024-01-22T10:20:09.332Z,10.55
2024-01-22T10:23:15.393Z,11.82
2024-01-22T10:26:23.075Z,10.43
2024-01-22T10:29:30.244Z,10.40
2024-01-22T10:32:33.041Z,10.57
2024-01-22T10:35:35.708Z,10.90
2024-01-22T10:38:38.618Z,10.68
2024-01-22T10:41:43.586Z,10.18
2024-01-22T10:44:49.094Z,10.73
2024-01-22T10:47:58.846Z,11.10
2024-01-22T10:51:08.362Z,10.07
2024-01-22T10:54:12.866Z,10.57
2024-01-22T10:57:25.865Z,10.43
2024-01-22T11:00:37.569Z,10.93
2024-01-22T11:03:47.918Z,10.43
2024-01-22T11:06:56.359Z,10.48
2024-01-22T11:10:04.550Z,11.15
2024-01-22T11:13:08.737Z,10.18
2024-01-22T11:16:11.533Z,10.30
2024-01-22T11:19:25.887Z,10.17
2024-01-22T11:22:28.946Z,10.40
2024-01-22T11:25:35.879Z,10.30
2024-01-22T11:28:38.787Z,10.38
2024-01-22T11:31:42.536Z,11.05
2024-01-22T11:34:48.707Z,9.77
2024-01-22T11:37:52.807Z,10.07
2024-01-22T11:40:57.155Z,9.88
2024-01-22T11:44:01.428Z,9.70
2024-01-22T11:47:10.877Z,10.45
2024-01-22T11:50:14.022Z,9.63
2024-01-22T11:53:17.195Z,10.27
2024-01-22T11:56:22.567Z,10.77
2024-01-22T11:59:26.418Z,9.25
2024-01-22T12:02:32.296Z,9.98
2024-01-22T12:05:37.016Z,10.03
2024-01-22T12:08:39.970Z,9.23
2024-01-22T12:11:52.669Z,10.00
2024-01-22T12:14:59.177Z,10.23
2024-01-22T12:18:04.442Z,9.55
2024-01-22T12:21:11.829Z,9.67
2024-01-22T12:24:15.910Z,9.40
2024-01-22T12:27:21.562Z,9.80
2024-01-22T12:30:25.244Z,9.60
2024-01-22T12:33:33.732Z,9.27
2024-01-22T12:36:38.740Z,9.00
2024-01-22T12:39:42.495Z,9.30
2024-01-22T12:42:59.035Z,9.77
2024-01-22T12:46:08.197Z,9.70
2024-01-22T12:49:12.101Z,9.00
2024-01-22T12:52:15.305Z,10.10
2024-01-22T12:55:19.748Z,9.57
2024-01-22T12:58:27.652Z,10.95
2024-01-22T13:01:32.193Z,9.32
2024-01-22T13:04:39.236Z,9.48
2024-01-22T13:07:43.262Z,9.03
2024-01-22T13:10:47.020Z,9.52
2024-01-22T13:13:52.354Z,10.60
2024-01-22T13:16:55.245Z,10.05
2024-01-22T13:20:01.203Z,10.23
2024-01-22T13:23:05.360Z,9.10
2024-01-22T13:26:11.100Z,9.85
2024-01-22T13:29:15.306Z,9.60
2024-01-22T13:32:21.482Z,9.85
2024-01-22T13:35:24.175Z,10.00
2024-01-22T13:38:30.392Z,9.63
2024-01-22T13:41:33.942Z,10.43
2024-01-22T13:44:37.110Z,9.43
2024-01-22T13:47:40.459Z,9.10
2024-01-22T13:50:43.984Z,9.90
2024-01-22T13:53:50.117Z,9.47
2024-01-22T13:56:53.258Z,10.32
2024-01-22T13:59:55.947Z,10.23
2024-01-22T14:02:59.036Z,9.63
2024-01-22T14:06:02.713Z,11.30
2024-01-22T14:09:07.335Z,12.20
2024-01-22T14:12:10.883Z,10.43
2024-01-22T14:15:14.649Z,9.57
2024-01-22T14:18:18.351Z,10.07
2024-01-22T14:21:21.775Z,10.07
2024-01-22T14:24:29.187Z,10.80
2024-01-22T14:27:33.275Z,10.88
2024-01-22T14:30:36.834Z,10.73
2024-01-22T14:33:40.912Z,10.43
2024-01-22T14:36:47.157Z,10.13
2024-01-22T14:39:51.198Z,10.47
2024-01-22T14:42:54.361Z,10.32
2024-01-22T14:45:58.443Z,10.57
2024-01-22T14:49:06.141Z,10.77
2024-01-22T14:52:16.306Z,11.20
2024-01-22T14:55:19.470Z,10.60
2024-01-22T14:58:22.293Z,11.45
2024-01-22T15:01:25.343Z,12.98
2024-01-22T15:04:28.161Z,14.68
2024-01-22T15:07:31.401Z,12.98
2024-01-22T15:10:36.644Z,13.67
2024-01-22T15:13:40.545Z,13.32
2024-01-22T15:16:48.332Z,13.18
2024-01-22T15:19:51.894Z,13.77
2024-01-22T15:22:55.694Z,14.00
2024-01-22T15:25:59.123Z,13.60
2024-01-22T15:29:02.881Z,13.32
2024-01-22T15:32:07.554Z,13.48
2024-01-22T15:35:10.934Z,16.20
2024-01-22T15:38:19.039Z,15.95
2024-01-22T15:41:23.762Z,17.37
2024-01-22T15:44:26.528Z,17.05
2024-01-22T15:47:29.610Z,18.23
2024-01-22T15:50:33.955Z,18.33
2024-01-22T15:53:36.902Z,17.08
2024-01-22T15:56:39.979Z,18.00
2024-01-22T15:59:42.876Z,17.95
2024-01-22T16:02:45.694Z,17.58
2024-01-22T16:05:49.104Z,17.88
2024-01-22T16:08:52.402Z,18.92
2024-01-22T16:11:55.241Z,19.17
2024-01-22T16:14:58.132Z,20.80
2024-01-22T16:18:02.040Z,20.52
2024-01-22T16:21:04.898Z,21.58
2024-01-22T16:24:08.483Z,22.02
2024-01-22T16:27:11.423Z,20.70
2024-01-22T16:30:15.097Z,21.30
2024-01-22T16:33:18.501Z,22.02
2024-01-22T16:36:23.611Z,21.90
2024-01-22T16:39:26.916Z,20.48
2024-01-22T16:42:30.212Z,20.93
2024-01-22T16:45:33.488Z,20.25
2024-01-22T16:48:38.371Z,21.15
2024-01-22T16:51:41.358Z,20.95
2024-01-22T16:54:43.935Z,21.02
2024-01-22T16:57:47.557Z,21.20
2024-01-22T17:00:51.262Z,20.88
2024-01-22T17:03:54.285Z,20.65
2024-01-22T17:07:12.925Z,21.60
2024-01-22T17:10:16.003Z,20.88
2024-01-22T17:13:18.676Z,21.10
2024-01-22T17:16:21.823Z,20.48
2024-01-22T17:19:25.327Z,20.38
2024-01-22T17:22:28.458Z,21.05
2024-01-22T17:25:31.356Z,21.38
2024-01-22T17:28:37.010Z,20.40
2024-01-22T17:31:40.880Z,19.45
2024-01-22T17:34:44.052Z,21.42
2024-01-22T17:37:47.126Z,19.23
2024-01-22T17:40:49.864Z,19.33
2024-01-22T17:43:52.913Z,20.13
2024-01-22T17:46:55.785Z,19.25
2024-01-22T17:50:00.027Z,20.17
2024-01-22T17:53:04.204Z,19.40
2024-01-22T17:56:07.361Z,18.02
2024-01-22T17:59:11.085Z,19.73
2024-01-22T18:02:14.359Z,19.10
2024-01-22T18:05:18.064Z,20.02
2024-01-22T18:08:21.097Z,19.23
2024-01-22T18:11:24.223Z,19.30
2024-01-22T18:14:27.344Z,19.90
2024-01-22T18:17:30.239Z,19.42
2024-01-22T18:20:33.237Z,19.48
2024-01-22T18:23:36.591Z,19.45
2024-01-22T18:26:39.520Z,18.52
2024-01-22T18:29:42.478Z,19.13
2024-01-22T18:32:46.881Z,18.85
2024-01-22T18:35:50.155Z,18.80
2024-01-22T18:38:52.975Z,18.67
2024-01-22T18:41:56.730Z,17.92
2024-01-22T18:45:00.921Z,18.47
2024-01-22T18:48:06.070Z,19.08
2024-01-22T18:51:09.437Z,18.95
2024-01-22T18:54:14.830Z,19.27
2024-01-22T18:57:18.027Z,19.35
2024-01-22T19:00:21.691Z,19.70
2024-01-22T19:03:26.893Z,18.90
2024-01-22T19:06:30.939Z,19.73
2024-01-22T19:09:35.026Z,20.35
2024-01-22T19:12:38.989Z,19.63
2024-01-22T19:15:43.138Z,19.27
2024-01-22T19:18:49.200Z,18.52
2024-01-22T19:21:52.837Z,18.80
2024-01-22T19:24:57.530Z,19.40
2024-01-22T19:28:00.756Z,19.55
2024-01-22T19:31:05.715Z,19.30
2024-01-22T19:34:09.616Z,20.10
2024-01-22T19:37:13.299Z,21.40
2024-01-22T19:40:17.977Z,19.75
2024-01-22T19:43:21.832Z,19.73
2024-01-22T19:46:25.816Z,20.97
2024-01-22T19:49:30.565Z,20.67
2024-01-22T19:52:34.824Z,20.33
2024-01-22T19:55:39.646Z,20.20
2024-01-22T19:58:44.407Z,20.50
2024-01-22T20:01:50.398Z,19.93
2024-01-22T20:04:54.423Z,19.67
2024-01-22T20:07:59.452Z,20.42
2024-01-22T20:11:03.320Z,19.73
2024-01-22T20:14:08.084Z,20.10
2024-01-22T20:17:11.370Z,18.87
2024-01-22T20:20:16.060Z,19.00
2024-01-22T20:23:20.697Z,19.25
2024-01-22T20:26:26.741Z,18.45
2024-01-22T20:29:31.025Z,19.20
2024-01-22T20:32:35.344Z,19.40
2024-01-22T20:35:40.129Z,18.10
2024-01-22T20:38:47.866Z,18.40
2024-01-22T20:41:51.757Z,18.35
2024-01-22T20:44:55.834Z,19.45
2024-01-22T20:48:00.963Z,19.03
2024-01-22T20:51:04.733Z,20.70
2024-01-22T20:54:08.211Z,20.48
2024-01-22T20:57:12.124Z,20.42
2024-01-22T21:00:16.924Z,21.33
2024-01-22T21:03:20.537Z,20.40
2024-01-22T21:06:23.639Z,21.33
2024-01-22T21:09:26.959Z,21.27
2024-01-22T21:12:29.830Z,21.48
2024-01-22T21:15:33.517Z,23.30
2024-01-22T21:18:36.824Z,21.93
2024-01-22T21:21:43.297Z,24.73
2024-01-22T21:24:49.524Z,25.05
2024-01-22T21:27:52.425Z,23.58
2024-01-22T21:30:55.415Z,25.38
2024-01-22T21:33:58.522Z,23.40
2024-01-22T21:37:01.321Z,23.60
2024-01-22T21:40:04.580Z,23.55
2024-01-22T21:43:08.530Z,23.88
2024-01-22T21:46:11.210Z,23.70
2024-01-22T21:49:14.189Z,23.93
2024-01-22T21:52:16.912Z,24.13
2024-01-22T21:55:19.560Z,25.80
2024-01-22T21:58:22.349Z,25.25
2024-01-22T22:01:25.460Z,24.83
2024-01-22T22:04:28.506Z,25.17
2024-01-22T22:07:31.502Z,25.63
2024-01-22T22:10:34.633Z,26.73
2024-01-22T22:13:37.664Z,26.23
2024-01-22T22:16:40.560Z,27.25
2024-01-22T22:19:44.588Z,27.37
2024-01-22T22:22:47.832Z,28.58
2024-01-22T22:25:50.428Z,29.10
2024-01-22T22:28:54.091Z,28.60
2024-01-22T22:31:56.924Z,27.83
2024-01-22T22:34:59.812Z,28.10
2024-01-22T22:38:02.526Z,28.48
2024-01-22T22:41:06.089Z,28.67
2024-01-22T22:44:09.512Z,27.70
2024-01-22T22:47:12.426Z,28.77
2024-01-22T22:50:15.484Z,30.33
2024-01-22T22:53:18.581Z,29.33
2024-01-22T22:56:22.176Z,29.30
2024-01-22T22:59:25.266Z,29.20
2024-01-22T23:02:28.171Z,29.08
2024-01-22T23:05:31.161Z,29.70
2024-01-22T23:08:34.158Z,29.08
2024-01-22T23:11:36.854Z,29.67
2024-01-22T23:14:39.641Z,30.23
2024-01-22T23:17:42.547Z,29.30
2024-01-22T23:20:45.416Z,29.53
2024-01-22T23:23:48.255Z,29.17
2024-01-22T23:26:51.199Z,30.10
2024-01-22T23:29:53.998Z,28.38
2024-01-22T23:32:57.037Z,28.90
2024-01-22T23:35:59.793Z,29.57
2024-01-22T23:39:08.556Z,28.77
2024-01-22T23:42:11.156Z,29.25
2024-01-22T23:45:14.005Z,27.83
2024-01-22T23:48:17.441Z,28.30
2024-01-22T23:51:21.083Z,28.30
2024-01-22T23:54:23.963Z,27.08
2024-01-22T23:57:26.873Z,28.17
